METAR Data
IDs: Format: Raw Decoded Include TAF

Data at: 0319 UTC 19 Oct 2021

KLRD 190256Z 11011KT 10SM CLR 23/15 A3001 RMK AO2 SLP162 T02280150 51018